Marietta, Oklahoma
Current Conditions -  °F | °C
As of 3:35 PM on Friday 24 Oct 2014 (Local Time) from K1F0 Reporting Station
Scattered Clouds Scattered Clouds  
Wind Chill: 82°   Ceiling: Unl
Heat Index: 83°   Visibility: 10mi
Dew Point: 61°   Wind: 6mph
Humidity: 48%   Direction: 210°SSW
Pressure: 30.06"   Gusts: NA
Location:  33.94°N, 97.12°W
Report Text: K1F0 242035Z AUTO 21005KT 10SM SCT043 28/16 A3006 RMK AO2
Loading
Personal Weather Stations






























Interactive Weather Map
Tropical Storm Tracking
New forecast layout! Learn more

10-Day Weather Forecast

Advertisements
Track Severe Weather on mobile